sensor_id;sensor_type;location;lat;lon;timestamp;pressure;altitude;pressure_sealevel;temperature;humidity
43480;BME280;29067;35.492;-97.520;2024-01-15T00:01:43;98357.44;;;-19.57;46.67
43480;BME280;29067;35.492;-97.520;2024-01-15T00:04:11;98346.32;;;-18.82;45.00
43480;BME280;29067;35.492;-97.520;2024-01-15T00:06:39;98347.97;;;-18.89;45.26
43480;BME280;29067;35.492;-97.520;2024-01-15T00:09:07;98353.36;;;-19.01;45.80
43480;BME280;29067;35.492;-97.520;2024-01-15T00:11:35;98351.74;;;-19.07;46.36
43480;BME280;29067;35.492;-97.520;2024-01-15T00:14:03;98360.17;;;-19.95;46.97
43480;BME280;29067;35.492;-97.520;2024-01-15T00:16:32;98360.63;;;-19.17;47.03
43480;BME280;29067;35.492;-97.520;2024-01-15T00:19:00;98356.92;;;-18.77;46.27
43480;BME280;29067;35.492;-97.520;2024-01-15T00:21:28;98359.89;;;-19.25;46.47
43480;BME280;29067;35.492;-97.520;2024-01-15T00:23:56;98364.44;;;-19.01;47.81
43480;BME280;29067;35.492;-97.520;2024-01-15T00:26:24;98366.37;;;-19.51;47.81
43480;BME280;29067;35.492;-97.520;2024-01-15T00:28:52;98364.02;;;-20.03;46.84
43480;BME280;29067;35.492;-97.520;2024-01-15T00:31:20;98363.49;;;-19.52;47.86
43480;BME280;29067;35.492;-97.520;2024-01-15T00:33:49;98354.18;;;-18.55;47.31
43480;BME280;29067;35.492;-97.520;2024-01-15T00:36:17;98359.99;;;-19.12;46.24
43480;BME280;29067;35.492;-97.520;2024-01-15T00:38:45;98366.09;;;-20.01;48.11
43480;BME280;29067;35.492;-97.520;2024-01-15T00:41:14;98362.90;;;-19.45;47.48
43480;BME280;29067;35.492;-97.520;2024-01-15T00:43:42;98356.90;;;-19.19;46.03
43480;BME280;29067;35.492;-97.520;2024-01-15T00:46:10;98364.72;;;-18.96;47.55
43480;BME280;29067;35.492;-97.520;2024-01-15T00:48:38;98371.04;;;-19.68;46.54
43480;BME280;29067;35.492;-97.520;2024-01-15T00:51:06;98381.02;;;-19.82;47.60
43480;BME280;29067;35.492;-97.520;2024-01-15T00:53:34;98375.19;;;-19.70;46.67
43480;BME280;29067;35.492;-97.520;2024-01-15T00:56:02;98373.84;;;-19.45;47.50
43480;BME280;29067;35.492;-97.520;2024-01-15T00:58:31;98377.34;;;-19.55;47.75
43480;BME280;29067;35.492;-97.520;2024-01-15T01:00:59;98374.78;;;-18.83;47.78
43480;BME280;29067;35.492;-97.520;2024-01-15T01:03:26;98374.34;;;-18.00;46.07
43480;BME280;29067;35.492;-97.520;2024-01-15T01:05:55;98383.50;;;-19.66;46.24
43480;BME280;29067;35.492;-97.520;2024-01-15T01:08:23;98388.21;;;-18.74;47.23
43480;BME280;29067;35.492;-97.520;2024-01-15T01:10:52;98391.13;;;-19.34;47.08
43480;BME280;29067;35.492;-97.520;2024-01-15T01:13:19;98393.55;;;-19.62;47.03
43480;BME280;29067;35.492;-97.520;2024-01-15T01:15:47;98396.36;;;-18.91;47.62
43480;BME280;29067;35.492;-97.520;2024-01-15T01:18:15;98390.19;;;-18.31;46.58
43480;BME280;29067;35.492;-97.520;2024-01-15T01:20:43;98390.41;;;-19.13;47.67
43480;BME280;29067;35.492;-97.520;2024-01-15T01:23:12;98389.59;;;-18.41;46.65
43480;BME280;29067;35.492;-97.520;2024-01-15T01:25:40;98385.63;;;-19.33;46.97
43480;BME280;29067;35.492;-97.520;2024-01-15T01:28:07;98383.66;;;-18.68;47.26
43480;BME280;29067;35.492;-97.520;2024-01-15T01:30:35;98378.31;;;-19.53;46.59
43480;BME280;29067;35.492;-97.520;2024-01-15T01:33:04;98380.55;;;-18.53;46.64
43480;BME280;29067;35.492;-97.520;2024-01-15T01:35:32;98386.28;;;-19.05;46.76
43480;BME280;29067;35.492;-97.520;2024-01-15T01:37:59;98390.61;;;-18.67;45.74
43480;BME280;29067;35.492;-97.520;2024-01-15T01:40:27;98390.31;;;-19.02;46.10
43480;BME280;29067;35.492;-97.520;2024-01-15T01:42:54;98388.67;;;-19.33;46.85
43480;BME280;29067;35.492;-97.520;2024-01-15T01:45:22;98384.12;;;-19.01;46.76
43480;BME280;29067;35.492;-97.520;2024-01-15T01:47:50;98382.44;;;-18.86;46.03
43480;BME280;29067;35.492;-97.520;2024-01-15T01:50:19;98387.66;;;-18.30;46.15
43480;BME280;29067;35.492;-97.520;2024-01-15T01:52:47;98392.38;;;-18.82;45.10
43480;BME280;29067;35.492;-97.520;2024-01-15T01:55:16;98391.22;;;-19.32;45.75
43480;BME280;29067;35.492;-97.520;2024-01-15T01:57:44;98393.17;;;-19.88;46.61
43480;BME280;29067;35.492;-97.520;2024-01-15T02:00:13;98391.55;;;-19.65;45.65
43480;BME280;29067;35.492;-97.520;2024-01-15T02:02:41;98391.33;;;-19.65;46.60
43480;BME280;29067;35.492;-97.520;2024-01-15T02:05:10;98394.65;;;-20.63;47.80
43480;BME280;29067;35.492;-97.520;2024-01-15T02:07:40;98396.63;;;-19.96;46.71
43480;BME280;29067;35.492;-97.520;2024-01-15T02:10:09;98392.86;;;-19.98;46.93
43480;BME280;29067;35.492;-97.520;2024-01-15T02:12:37;98392.56;;;-20.20;46.55
43480;BME280;29067;35.492;-97.520;2024-01-15T02:15:06;98391.91;;;-20.12;47.28
43480;BME280;29067;35.492;-97.520;2024-01-15T02:17:34;98390.20;;;-19.44;46.55
43480;BME280;29067;35.492;-97.520;2024-01-15T02:20:02;98382.39;;;-19.77;46.39
43480;BME280;29067;35.492;-97.520;2024-01-15T02:22:30;98378.79;;;-19.25;45.58
43480;BME280;29067;35.492;-97.520;2024-01-15T02:24:58;98381.58;;;-20.14;46.31
43480;BME280;29067;35.492;-97.520;2024-01-15T02:27:26;98383.64;;;-19.57;45.67
43480;BME280;29067;35.492;-97.520;2024-01-15T02:29:54;98377.82;;;-19.25;47.00
43480;BME280;29067;35.492;-97.520;2024-01-15T02:32:23;98381.99;;;-18.72;45.22
43480;BME280;29067;35.492;-97.520;2024-01-15T02:34:52;98381.95;;;-19.20;45.00
43480;BME280;29067;35.492;-97.520;2024-01-15T02:37:20;98389.58;;;-18.65;44.72
43480;BME280;29067;35.492;-97.520;2024-01-15T02:39:47;98400.54;;;-18.89;46.20
43480;BME280;29067;35.492;-97.520;2024-01-15T02:42:15;98407.05;;;-19.73;47.18
43480;BME280;29067;35.492;-97.520;2024-01-15T02:44:43;98401.80;;;-19.27;45.64
43480;BME280;29067;35.492;-97.520;2024-01-15T02:47:11;98407.24;;;-19.95;46.24
43480;BME280;29067;35.492;-97.520;2024-01-15T02:49:39;98411.42;;;-19.15;45.09
43480;BME280;29067;35.492;-97.520;2024-01-15T02:52:08;98413.30;;;-18.73;44.55
43480;BME280;29067;35.492;-97.520;2024-01-15T02:54:36;98420.35;;;-18.84;45.39
43480;BME280;29067;35.492;-97.520;2024-01-15T02:57:04;98429.40;;;-20.63;46.06
43480;BME280;29067;35.492;-97.520;2024-01-15T02:59:32;98426.02;;;-19.95;45.84
43480;BME280;29067;35.492;-97.520;2024-01-15T03:02:00;98425.82;;;-20.26;46.40
43480;BME280;29067;35.492;-97.520;2024-01-15T03:04:29;98421.42;;;-19.41;46.35
43480;BME280;29067;35.492;-97.520;2024-01-15T03:06:57;98417.31;;;-19.62;44.92
43480;BME280;29067;35.492;-97.520;2024-01-15T03:09:25;98414.35;;;-18.87;45.53
43480;BME280;29067;35.492;-97.520;2024-01-15T03:11:53;98414.59;;;-19.49;46.01
43480;BME280;29067;35.492;-97.520;2024-01-15T03:14:21;98408.48;;;-18.33;45.06
43480;BME280;29067;35.492;-97.520;2024-01-15T03:16:50;98411.64;;;-18.16;44.29
43480;BME280;29067;35.492;-97.520;2024-01-15T03:19:18;98421.22;;;-18.17;43.96
43480;BME280;29067;35.492;-97.520;2024-01-15T03:21:46;98418.46;;;-18.14;43.15
43480;BME280;29067;35.492;-97.520;2024-01-15T03:24:15;98420.33;;;-19.35;45.56
43480;BME280;29067;35.492;-97.520;2024-01-15T03:26:42;98419.19;;;-18.91;45.41
43480;BME280;29067;35.492;-97.520;2024-01-15T03:29:10;98418.36;;;-18.93;45.68
43480;BME280;29067;35.492;-97.520;2024-01-15T03:31:39;98422.95;;;-19.72;46.42
43480;BME280;29067;35.492;-97.520;2024-01-15T03:34:07;98416.71;;;-18.95;46.71
43480;BME280;29067;35.492;-97.520;2024-01-15T03:36:36;98426.24;;;-19.85;45.64
43480;BME280;29067;35.492;-97.520;2024-01-15T03:39:04;98423.28;;;-19.27;45.59
43480;BME280;29067;35.492;-97.520;2024-01-15T03:41:33;98420.65;;;-19.51;46.55
43480;BME280;29067;35.492;-97.520;2024-01-15T03:44:01;98422.96;;;-20.15;47.54
43480;BME280;29067;35.492;-97.520;2024-01-15T03:46:30;98422.52;;;-19.25;46.20
43480;BME280;29067;35.492;-97.520;2024-01-15T03:48:59;98426.84;;;-18.94;45.55
43480;BME280;29067;35.492;-97.520;2024-01-15T03:51:26;98422.27;;;-20.08;46.19
43480;BME280;29067;35.492;-97.520;2024-01-15T03:53:55;98426.58;;;-19.58;47.30
43480;BME280;29067;35.492;-97.520;2024-01-15T03:56:22;98423.77;;;-19.03;46.56
43480;BME280;29067;35.492;-97.520;2024-01-15T03:58:51;98419.55;;;-19.14;45.92
43480;BME280;29067;35.492;-97.520;2024-01-15T04:01:19;98415.44;;;-18.66;45.68
43480;BME280;29067;35.492;-97.520;2024-01-15T04:03:48;98410.51;;;-18.35;45.07
43480;BME280;29067;35.492;-97.520;2024-01-15T04:06:16;98399.54;;;-18.49;45.64
43480;BME280;29067;35.492;-97.520;2024-01-15T04:08:44;98404.21;;;-18.69;45.91
43480;BME280;29067;35.492;-97.520;2024-01-15T04:11:12;98411.38;;;-19.45;46.47
43480;BME280;29067;35.492;-97.520;2024-01-15T04:13:41;98402.25;;;-18.88;45.70
43480;BME280;29067;35.492;-97.520;2024-01-15T04:16:09;98400.78;;;-19.21;46.73
43480;BME280;29067;35.492;-97.520;2024-01-15T04:18:37;98400.34;;;-19.78;46.69
43480;BME280;29067;35.492;-97.520;2024-01-15T04:21:05;98405.99;;;-20.14;47.69
43480;BME280;29067;35.492;-97.520;2024-01-15T04:23:34;98396.57;;;-19.40;46.85
43480;BME280;29067;35.492;-97.520;2024-01-15T04:26:02;98394.35;;;-20.09;47.37
43480;BME280;29067;35.492;-97.520;2024-01-15T04:28:30;98389.14;;;-18.77;45.69
43480;BME280;29067;35.492;-97.520;2024-01-15T04:30:58;98395.22;;;-20.12;45.77
43480;BME280;29067;35.492;-97.520;2024-01-15T04:33:26;98396.74;;;-19.18;47.04
43480;BME280;29067;35.492;-97.520;2024-01-15T04:35:54;98395.56;;;-19.87;46.63
43480;BME280;29067;35.492;-97.520;2024-01-15T04:38:26;98399.96;;;-20.61;47.23
43480;BME280;29067;35.492;-97.520;2024-01-15T04:40:54;98403.45;;;-20.74;47.42
43480;BME280;29067;35.492;-97.520;2024-01-15T04:43:22;98413.73;;;-20.29;46.86
43480;BME280;29067;35.492;-97.520;2024-01-15T04:45:50;98413.72;;;-19.57;45.91
43480;BME280;29067;35.492;-97.520;2024-01-15T04:48:19;98420.99;;;-18.71;46.44
43480;BME280;29067;35.492;-97.520;2024-01-15T04:50:47;98437.52;;;-19.95;46.64
43480;BME280;29067;35.492;-97.520;2024-01-15T04:53:15;98437.16;;;-19.96;46.83
43480;BME280;29067;35.492;-97.520;2024-01-15T04:55:44;98435.80;;;-19.95;47.80
43480;BME280;29067;35.492;-97.520;2024-01-15T04:58:12;98433.70;;;-19.55;46.56
43480;BME280;29067;35.492;-97.520;2024-01-15T05:00:40;98442.37;;;-20.40;45.97
43480;BME280;29067;35.492;-97.520;2024-01-15T05:03:08;98440.64;;;-19.63;45.33
43480;BME280;29067;35.492;-97.520;2024-01-15T05:05:36;98432.24;;;-19.87;45.39
43480;BME280;29067;35.492;-97.520;2024-01-15T05:08:05;98429.82;;;-19.91;45.67
43480;BME280;29067;35.492;-97.520;2024-01-15T05:10:33;98428.89;;;-19.34;45.84
43480;BME280;29067;35.492;-97.520;2024-01-15T05:13:01;98420.50;;;-18.18;44.39
43480;BME280;29067;35.492;-97.520;2024-01-15T05:15:29;98424.12;;;-19.64;44.54
43480;BME280;29067;35.492;-97.520;2024-01-15T05:17:57;98416.38;;;-20.05;46.40
43480;BME280;29067;35.492;-97.520;2024-01-15T05:20:26;98407.86;;;-19.51;44.92
43480;BME280;29067;35.492;-97.520;2024-01-15T05:22:54;98409.67;;;-19.74;45.33
43480;BME280;29067;35.492;-97.520;2024-01-15T05:25:22;98405.53;;;-19.28;45.23
43480;BME280;29067;35.492;-97.520;2024-01-15T05:27:50;98406.43;;;-19.51;44.83
43480;BME280;29067;35.492;-97.520;2024-01-15T05:30:18;98408.39;;;-19.13;44.68
43480;BME280;29067;35.492;-97.520;2024-01-15T05:32:46;98416.18;;;-19.93;45.67
43480;BME280;29067;35.492;-97.520;2024-01-15T05:35:14;98417.95;;;-18.84;44.85
43480;BME280;29067;35.492;-97.520;2024-01-15T05:37:44;98413.22;;;-19.52;45.52
43480;BME280;29067;35.492;-97.520;2024-01-15T05:40:13;98413.55;;;-20.71;46.80
43480;BME280;29067;35.492;-97.520;2024-01-15T05:42:42;98423.60;;;-20.21;45.11
43480;BME280;29067;35.492;-97.520;2024-01-15T05:45:10;98436.47;;;-20.66;46.29
43480;BME280;29067;35.492;-97.520;2024-01-15T05:47:38;98434.60;;;-19.40;45.42
43480;BME280;29067;35.492;-97.520;2024-01-15T05:50:06;98415.57;;;-19.23;45.03
43480;BME280;29067;35.492;-97.520;2024-01-15T05:52:34;98415.55;;;-19.67;46.45
43480;BME280;29067;35.492;-97.520;2024-01-15T05:55:03;98405.92;;;-19.83;45.50
43480;BME280;29067;35.492;-97.520;2024-01-15T05:57:31;98396.26;;;-19.51;46.68
43480;BME280;29067;35.492;-97.520;2024-01-15T05:59:59;98396.92;;;-19.79;45.50
43480;BME280;29067;35.492;-97.520;2024-01-15T06:02:28;98403.24;;;-19.81;45.59
43480;BME280;29067;35.492;-97.520;2024-01-15T06:04:55;98407.46;;;-19.96;46.54
43480;BME280;29067;35.492;-97.520;2024-01-15T06:07:23;98399.23;;;-20.66;47.97
43480;BME280;29067;35.492;-97.520;2024-01-15T06:09:52;98395.31;;;-19.96;46.68
43480;BME280;29067;35.492;-97.520;2024-01-15T06:12:20;98403.26;;;-20.45;46.46
43480;BME280;29067;35.492;-97.520;2024-01-15T06:14:48;98417.87;;;-20.34;46.79
43480;BME280;29067;35.492;-97.520;2024-01-15T06:17:16;98414.50;;;-19.74;46.28
43480;BME280;29067;35.492;-97.520;2024-01-15T06:19:43;98409.82;;;-19.27;45.75
43480;BME280;29067;35.492;-97.520;2024-01-15T06:22:11;98407.96;;;-20.05;46.53
43480;BME280;29067;35.492;-97.520;2024-01-15T06:24:39;98403.93;;;-20.30;45.51
43480;BME280;29067;35.492;-97.520;2024-01-15T06:27:07;98402.44;;;-20.37;46.28
43480;BME280;29067;35.492;-97.520;2024-01-15T06:29:38;98401.10;;;-20.67;46.84
43480;BME280;29067;35.492;-97.520;2024-01-15T06:32:06;98386.84;;;-18.85;44.77
43480;BME280;29067;35.492;-97.520;2024-01-15T06:34:33;98384.38;;;-20.17;46.55
43480;BME280;29067;35.492;-97.520;2024-01-15T06:37:01;98388.45;;;-20.40;46.20
43480;BME280;29067;35.492;-97.520;2024-01-15T06:39:29;98399.76;;;-20.50;45.36
43480;BME280;29067;35.492;-97.520;2024-01-15T06:41:57;98388.92;;;-20.05;45.89
43480;BME280;29067;35.492;-97.520;2024-01-15T06:44:25;98388.68;;;-20.35;46.25
43480;BME280;29067;35.492;-97.520;2024-01-15T06:46:54;98381.07;;;-20.39;46.41
43480;BME280;29067;35.492;-97.520;2024-01-15T06:49:22;98372.34;;;-19.01;45.44
43480;BME280;29067;35.492;-97.520;2024-01-15T06:51:50;98366.40;;;-21.10;47.36
43480;BME280;29067;35.492;-97.520;2024-01-15T06:54:17;98361.73;;;-19.97;46.79
43480;BME280;29067;35.492;-97.520;2024-01-15T06:56:45;98364.05;;;-19.08;45.97
43480;BME280;29067;35.492;-97.520;2024-01-15T06:59:13;98355.64;;;-20.74;47.00
43480;BME280;29067;35.492;-97.520;2024-01-15T07:01:41;98340.80;;;-21.01;47.17
43480;BME280;29067;35.492;-97.520;2024-01-15T07:04:09;98340.09;;;-20.48;47.26
43480;BME280;29067;35.492;-97.520;2024-01-15T07:06:37;98333.94;;;-21.04;46.36
43480;BME280;29067;35.492;-97.520;2024-01-15T07:09:05;98348.64;;;-21.38;47.89
43480;BME280;29067;35.492;-97.520;2024-01-15T07:11:33;98353.10;;;-20.87;48.14
43480;BME280;29067;35.492;-97.520;2024-01-15T07:14:00;98350.90;;;-20.18;46.48
43480;BME280;29067;35.492;-97.520;2024-01-15T07:16:28;98350.06;;;-20.60;46.62
43480;BME280;29067;35.492;-97.520;2024-01-15T07:18:56;98342.07;;;-20.85;46.49
43480;BME280;29067;35.492;-97.520;2024-01-15T07:21:24;98348.35;;;-20.34;46.58
43480;BME280;29067;35.492;-97.520;2024-01-15T07:23:52;98350.81;;;-21.13;46.55
43480;BME280;29067;35.492;-97.520;2024-01-15T07:26:19;98348.14;;;-20.67;46.50
43480;BME280;29067;35.492;-97.520;2024-01-15T07:28:47;98351.50;;;-19.96;45.56
43480;BME280;29067;35.492;-97.520;2024-01-15T07:31:16;98359.01;;;-20.96;46.45
43480;BME280;29067;35.492;-97.520;2024-01-15T07:33:45;98357.20;;;-20.77;45.70
43480;BME280;29067;35.492;-97.520;2024-01-15T07:36:13;98361.92;;;-20.09;46.47
43480;BME280;29067;35.492;-97.520;2024-01-15T07:38:41;98364.41;;;-20.80;46.92
43480;BME280;29067;35.492;-97.520;2024-01-15T07:41:09;98359.34;;;-19.68;46.42
43480;BME280;29067;35.492;-97.520;2024-01-15T07:43:38;98346.34;;;-20.53;47.23
43480;BME280;29067;35.492;-97.520;2024-01-15T07:46:07;98330.93;;;-20.36;47.78
43480;BME280;29067;35.492;-97.520;2024-01-15T07:48:35;98337.26;;;-21.44;48.53
43480;BME280;29067;35.492;-97.520;2024-01-15T07:51:03;98354.40;;;-18.82;45.61
43480;BME280;29067;35.492;-97.520;2024-01-15T07:53:30;98358.23;;;-19.29;44.44
43480;BME280;29067;35.492;-97.520;2024-01-15T07:55:58;98348.40;;;-20.15;45.38
43480;BME280;29067;35.492;-97.520;2024-01-15T07:58:26;98332.88;;;-19.85;46.30
43480;BME280;29067;35.492;-97.520;2024-01-15T08:00:54;98328.49;;;-20.82;47.09
43480;BME280;29067;35.492;-97.520;2024-01-15T08:03:22;98326.42;;;-19.62;45.41
43480;BME280;29067;35.492;-97.520;2024-01-15T08:05:50;98319.44;;;-20.83;46.99
43480;BME280;29067;35.492;-97.520;2024-01-15T08:08:18;98300.94;;;-20.80;46.72
43480;BME280;29067;35.492;-97.520;2024-01-15T08:10:46;98301.94;;;-20.52;46.60
43480;BME280;29067;35.492;-97.520;2024-01-15T08:13:14;98295.46;;;-21.37;47.51
43480;BME280;29067;35.492;-97.520;2024-01-15T08:15:42;98303.13;;;-20.63;46.29
43480;BME280;29067;35.492;-97.520;2024-01-15T08:18:11;98295.95;;;-21.29;46.25
43480;BME280;29067;35.492;-97.520;2024-01-15T08:20:39;98292.54;;;-22.83;47.09
43480;BME280;29067;35.492;-97.520;2024-01-15T08:23:07;98309.59;;;-21.61;47.35
43480;BME280;29067;35.492;-97.520;2024-01-15T08:25:35;98325.89;;;-21.56;47.30
43480;BME280;29067;35.492;-97.520;2024-01-15T08:28:04;98331.21;;;-21.10;47.48
43480;BME280;29067;35.492;-97.520;2024-01-15T08:30:31;98342.19;;;-21.12;47.78
43480;BME280;29067;35.492;-97.520;2024-01-15T08:32:59;98324.67;;;-19.70;46.65
43480;BME280;29067;35.492;-97.520;2024-01-15T08:35:27;98339.16;;;-20.53;46.26
43480;BME280;29067;35.492;-97.520;2024-01-15T08:37:55;98341.48;;;-19.59;45.67
43480;BME280;29067;35.492;-97.520;2024-01-15T08:40:23;98341.55;;;-20.44;45.76
43480;BME280;29067;35.492;-97.520;2024-01-15T08:42:51;98324.63;;;-19.86;45.26
43480;BME280;29067;35.492;-97.520;2024-01-15T08:45:19;98310.85;;;-20.39;44.71
43480;BME280;29067;35.492;-97.520;2024-01-15T08:47:47;98323.38;;;-20.12;44.77
43480;BME280;29067;35.492;-97.520;2024-01-15T08:50:15;98332.70;;;-19.69;44.90
43480;BME280;29067;35.492;-97.520;2024-01-15T08:52:44;98326.02;;;-19.93;45.55
43480;BME280;29067;35.492;-97.520;2024-01-15T08:55:12;98338.08;;;-19.20;44.89
43480;BME280;29067;35.492;-97.520;2024-01-15T08:57:40;98310.15;;;-20.78;45.57
43480;BME280;29067;35.492;-97.520;2024-01-15T09:00:09;98330.81;;;-20.63;45.68
43480;BME280;29067;35.492;-97.520;2024-01-15T09:02:37;98318.71;;;-20.76;45.04
43480;BME280;29067;35.492;-97.520;2024-01-15T09:05:05;98325.50;;;-21.62;46.02
43480;BME280;29067;35.492;-97.520;2024-01-15T09:07:33;98316.13;;;-20.64;46.20
43480;BME280;29067;35.492;-97.520;2024-01-15T09:10:01;98322.62;;;-21.15;45.39
43480;BME280;29067;35.492;-97.520;2024-01-15T09:12:29;98337.23;;;-20.10;46.08
43480;BME280;29067;35.492;-97.520;2024-01-15T09:14:57;98337.38;;;-19.96;45.01
43480;BME280;29067;35.492;-97.520;2024-01-15T09:17:25;98354.89;;;-21.39;46.05
43480;BME280;29067;35.492;-97.520;2024-01-15T09:19:53;98359.16;;;-20.51;46.03
43480;BME280;29067;35.492;-97.520;2024-01-15T09:22:21;98371.83;;;-19.79;46.33
43480;BME280;29067;35.492;-97.520;2024-01-15T09:24:49;98368.04;;;-22.06;46.62
43480;BME280;29067;35.492;-97.520;2024-01-15T09:27:17;98371.88;;;-20.67;45.67
43480;BME280;29067;35.492;-97.520;2024-01-15T09:29:45;98373.43;;;-21.24;45.45
43480;BME280;29067;35.492;-97.520;2024-01-15T09:32:13;98365.16;;;-21.59;47.03
43480;BME280;29067;35.492;-97.520;2024-01-15T09:34:41;98357.85;;;-22.44;48.07
43480;BME280;29067;35.492;-97.520;2024-01-15T09:37:08;98330.05;;;-21.52;48.38
43480;BME280;29067;35.492;-97.520;2024-01-15T09:39:36;98327.81;;;-22.13;47.88
43480;BME280;29067;35.492;-97.520;2024-01-15T09:42:05;98319.65;;;-21.83;47.74
43480;BME280;29067;35.492;-97.520;2024-01-15T09:44:33;98307.76;;;-21.73;47.49
43480;BME280;29067;35.492;-97.520;2024-01-15T09:47:01;98299.84;;;-21.16;46.69
43480;BME280;29067;35.492;-97.520;2024-01-15T09:49:30;98297.18;;;-22.07;47.02
43480;BME280;29067;35.492;-97.520;2024-01-15T09:51:58;98301.98;;;-22.55;47.01
43480;BME280;29067;35.492;-97.520;2024-01-15T09:54:27;98304.90;;;-21.08;46.13
43480;BME280;29067;35.492;-97.520;2024-01-15T09:56:55;98312.21;;;-21.27;47.63
43480;BME280;29067;35.492;-97.520;2024-01-15T09:59:25;98316.29;;;-21.10;47.93
43480;BME280;29067;35.492;-97.520;2024-01-15T10:01:54;98313.75;;;-20.71;46.83
43480;BME280;29067;35.492;-97.520;2024-01-15T10:04:23;98311.15;;;-20.72;45.08
43480;BME280;29067;35.492;-97.520;2024-01-15T10:06:52;98310.79;;;-20.79;44.53
43480;BME280;29067;35.492;-97.520;2024-01-15T10:09:21;98313.77;;;-21.06;44.46
43480;BME280;29067;35.492;-97.520;2024-01-15T10:11:49;98313.33;;;-21.75;45.66
43480;BME280;29067;35.492;-97.520;2024-01-15T10:14:17;98320.28;;;-21.15;44.50
43480;BME280;29067;35.492;-97.520;2024-01-15T10:16:46;98323.38;;;-20.63;45.40
43480;BME280;29067;35.492;-97.520;2024-01-15T10:19:14;98316.43;;;-21.57;45.55
43480;BME280;29067;35.492;-97.520;2024-01-15T10:21:41;98310.09;;;-21.64;45.18
43480;BME280;29067;35.492;-97.520;2024-01-15T10:24:10;98310.19;;;-22.07;44.30
43480;BME280;29067;35.492;-97.520;2024-01-15T10:26:39;98316.74;;;-21.15;43.74
43480;BME280;29067;35.492;-97.520;2024-01-15T10:29:07;98324.20;;;-21.79;45.25
43480;BME280;29067;35.492;-97.520;2024-01-15T10:31:35;98320.90;;;-21.57;44.05
43480;BME280;29067;35.492;-97.520;2024-01-15T10:34:11;98316.17;;;-20.45;44.32
43480;BME280;29067;35.492;-97.520;2024-01-15T10:36:40;98308.75;;;-20.00;43.09
43480;BME280;29067;35.492;-97.520;2024-01-15T10:39:08;98301.76;;;-20.49;43.54
43480;BME280;29067;35.492;-97.520;2024-01-15T10:41:36;98297.82;;;-20.56;43.68
43480;BME280;29067;35.492;-97.520;2024-01-15T10:44:04;98296.52;;;-21.03;42.82
43480;BME280;29067;35.492;-97.520;2024-01-15T10:46:33;98286.07;;;-20.44;43.04
43480;BME280;29067;35.492;-97.520;2024-01-15T10:49:02;98279.69;;;-21.50;44.01
43480;BME280;29067;35.492;-97.520;2024-01-15T10:51:31;98296.86;;;-20.85;43.31
43480;BME280;29067;35.492;-97.520;2024-01-15T10:54:01;98298.66;;;-20.47;44.12
43480;BME280;29067;35.492;-97.520;2024-01-15T10:56:30;98303.88;;;-20.48;43.28
43480;BME280;29067;35.492;-97.520;2024-01-15T10:58:59;98299.26;;;-21.27;43.78
43480;BME280;29067;35.492;-97.520;2024-01-15T11:01:29;98296.35;;;-21.01;43.28
43480;BME280;29067;35.492;-97.520;2024-01-15T11:03:58;98300.58;;;-21.49;44.38
43480;BME280;29067;35.492;-97.520;2024-01-15T11:06:28;98308.76;;;-21.46;43.83
43480;BME280;29067;35.492;-97.520;2024-01-15T11:09:08;98313.85;;;-22.47;43.34
43480;BME280;29067;35.492;-97.520;2024-01-15T11:11:36;98308.67;;;-21.31;42.87
43480;BME280;29067;35.492;-97.520;2024-01-15T11:14:08;98302.04;;;-21.16;42.55
43480;BME280;29067;35.492;-97.520;2024-01-15T11:17:09;98298.73;;;-22.51;43.01
43480;BME280;29067;35.492;-97.520;2024-01-15T11:19:38;98300.84;;;-20.70;43.44
43480;BME280;29067;35.492;-97.520;2024-01-15T11:22:11;98309.84;;;-21.21;43.11
43480;BME280;29067;35.492;-97.520;2024-01-15T11:25:15;98311.67;;;-21.43;44.44
43480;BME280;29067;35.492;-97.520;2024-01-15T11:27:44;98302.47;;;-20.94;42.97
43480;BME280;29067;35.492;-97.520;2024-01-15T11:30:13;98302.05;;;-21.63;42.82
43480;BME280;29067;35.492;-97.520;2024-01-15T11:32:41;98309.20;;;-20.87;43.76
43480;BME280;29067;35.492;-97.520;2024-01-15T11:35:10;98309.68;;;-21.48;44.59
43480;BME280;29067;35.492;-97.520;2024-01-15T11:38:10;98304.08;;;-20.31;42.45
43480;BME280;29067;35.492;-97.520;2024-01-15T11:40:39;98307.12;;;-21.95;43.07
43480;BME280;29067;35.492;-97.520;2024-01-15T11:43:07;98316.79;;;-21.54;43.84
43480;BME280;29067;35.492;-97.520;2024-01-15T11:45:35;98322.62;;;-21.51;43.82
43480;BME280;29067;35.492;-97.520;2024-01-15T11:48:10;98321.99;;;-21.93;43.89
43480;BME280;29067;35.492;-97.520;2024-01-15T11:50:42;98307.10;;;-21.21;44.45
43480;BME280;29067;35.492;-97.520;2024-01-15T11:53:26;98292.57;;;-21.89;43.82
43480;BME280;29067;35.492;-97.520;2024-01-15T11:55:58;98303.65;;;-22.16;44.67
43480;BME280;29067;35.492;-97.520;2024-01-15T11:58:27;98305.14;;;-22.29;44.50
43480;BME280;29067;35.492;-97.520;2024-01-15T12:03:02;98323.24;;;-21.36;44.06
43480;BME280;29067;35.492;-97.520;2024-01-15T12:05:32;98312.88;;;-22.14;44.46
43480;BME280;29067;35.492;-97.520;2024-01-15T12:08:00;98309.41;;;-22.11;44.47
43480;BME280;29067;35.492;-97.520;2024-01-15T12:10:28;98324.22;;;-21.83;43.39
43480;BME280;29067;35.492;-97.520;2024-01-15T12:12:59;98327.22;;;-22.36;43.26
43480;BME280;29067;35.492;-97.520;2024-01-15T12:15:28;98324.64;;;-21.92;44.16
43480;BME280;29067;35.492;-97.520;2024-01-15T12:17:57;98329.89;;;-22.33;44.66
43480;BME280;29067;35.492;-97.520;2024-01-15T12:20:27;98337.70;;;-22.67;44.84
43480;BME280;29067;35.492;-97.520;2024-01-15T12:22:55;98346.26;;;-21.25;43.14
43480;BME280;29067;35.492;-97.520;2024-01-15T12:25:24;98357.45;;;-21.61;42.40
43480;BME280;29067;35.492;-97.520;2024-01-15T12:27:53;98356.44;;;-20.80;42.43
43480;BME280;29067;35.492;-97.520;2024-01-15T12:30:21;98359.66;;;-21.26;42.16
43480;BME280;29067;35.492;-97.520;2024-01-15T12:32:49;98365.25;;;-21.14;43.09
43480;BME280;29067;35.492;-97.520;2024-01-15T12:35:18;98365.86;;;-21.61;43.05
43480;BME280;29067;35.492;-97.520;2024-01-15T12:37:47;98362.47;;;-22.44;43.70
43480;BME280;29067;35.492;-97.520;2024-01-15T12:40:19;98363.35;;;-22.35;43.65